Time;durP1;ratioP1;P1;durP2;ratioP2;P2;SDS_P1;SDS_P2;PMS_P1;PMS_P2;Temp;Humidity;BMP_temperature;BMP_pressure;BME280_temperature;BME280_humidity;BME280_pressure;Samples;Min_cycle;Max_cycle;Signal;HPM_P1;HPM_P2
2022/08/30 00:02:59;;;;;;;1.60;1.47;;;16.60;99.90;;;;;;4927208;29;20599;-73
2022/08/30 00:06:05;;;;;;;2.60;1.60;;;16.60;99.90;;;;;;4925096;29;20471;-73
2022/08/30 00:09:11;;;;;;;1.50;1.40;;;16.60;99.90;;;;;;4924565;29;20577;-75
2022/08/30 00:12:22;;;;;;;3.03;1.60;;;16.60;99.90;;;;;;4928900;29;20583;-73
2022/08/30 00:18:40;;;;;;;2.20;1.47;;;16.60;99.90;;;;;;4924392;29;20899;-73
2022/08/30 00:21:53;;;;;;;2.90;1.40;;;16.60;99.90;;;;;;4924974;29;20456;-73
2022/08/30 00:25:08;;;;;;;2.73;1.50;;;16.50;99.90;;;;;;4926337;29;20468;-73
2022/08/30 00:28:31;;;;;;;3.83;1.73;;;16.40;99.90;;;;;;4911063;29;20840;-73
2022/08/30 00:31:35;;;;;;;1.50;1.40;;;16.40;99.90;;;;;;4926319;29;20452;-73
2022/08/30 00:34:31;;;;;;;1.80;1.70;;;16.50;99.90;;;;;;4926955;28;20488;-73
2022/08/30 00:37:36;;;;;;;2.43;1.60;;;16.40;99.90;;;;;;4924714;29;20550;-73
2022/08/30 00:40:29;;;;;;;2.73;1.70;;;16.40;99.90;;;;;;4925354;29;21003;-73
2022/08/30 00:47:14;;;;;;;2.57;2.17;;;16.40;99.90;;;;;;4923257;29;20599;-73
2022/08/30 00:50:40;;;;;;;;;;;;;;;;;;;;;
2022/08/30 00:53:58;;;;;;;2.33;2.13;;;16.40;99.90;;;;;;4924844;28;21319;-73
2022/08/30 00:56:57;;;;;;;2.23;1.70;;;16.40;99.90;;;;;;4924382;29;20483;-73
2022/08/30 01:00:02;;;;;;;2.13;1.93;;;16.40;99.90;;;;;;4925053;29;20500;-73
2022/08/30 01:03:26;;;;;;;;;;;;;;;;;;;;;
2022/08/30 01:06:21;;;;;;;1.97;1.80;;;16.40;99.90;;;;;;4929638;29;21031;-73
2022/08/30 01:09:33;;;;;;;;;;;;;;;;;;;;;
2022/08/30 01:12:30;;;;;;;2.07;1.63;;;16.40;99.90;;;;;;4929883;28;20447;-73
2022/08/30 01:15:48;;;;;;;3.20;1.60;;;16.30;99.90;;;;;;4927756;29;20566;-73
2022/08/30 01:18:48;;;;;;;2.53;1.43;;;16.40;99.90;;;;;;4925573;29;20505;-73
2022/08/30 01:21:49;;;;;;;1.63;1.53;;;16.30;99.90;;;;;;4928579;29;20494;-73
2022/08/30 01:24:51;;;;;;;1.60;1.50;;;16.40;99.90;;;;;;4928130;28;20466;-73
2022/08/30 01:28:12;;;;;;;1.67;1.57;;;16.30;99.90;;;;;;4927627;29;20553;-73
2022/08/30 01:31:27;;;;;;;1.50;1.40;;;16.30;99.90;;;;;;4924967;29;20467;-73
2022/08/30 01:34:51;;;;;;;1.90;1.57;;;16.30;99.90;;;;;;4929171;29;20487;-73
2022/08/30 01:38:07;;;;;;;;;;;;;;;;;;;;;
2022/08/30 01:41:23;;;;;;;2.10;1.30;;;16.30;99.90;;;;;;4929354;28;20456;-73
2022/08/30 01:44:14;;;;;;;2.23;1.50;;;16.30;99.90;;;;;;4929065;28;20456;-73
2022/08/30 01:47:11;;;;;;;1.50;1.40;;;16.30;99.90;;;;;;4927613;28;20460;-73
2022/08/30 01:50:22;;;;;;;1.73;1.63;;;16.30;99.90;;;;;;4930170;29;20552;-73
2022/08/30 01:53:28;;;;;;;1.43;1.33;;;16.20;99.90;;;;;;4930465;29;20456;-73
2022/08/30 01:56:33;;;;;;;1.53;1.33;;;16.20;99.90;;;;;;4927717;29;20492;-73
2022/08/30 01:59:32;;;;;;;1.30;1.20;;;16.20;99.90;;;;;;4931548;29;20596;-73
2022/08/30 02:05:53;;;;;;;2.20;1.73;;;16.20;99.90;;;;;;4926619;29;20471;-73
2022/08/30 02:08:57;;;;;;;1.53;1.43;;;16.20;99.90;;;;;;4924511;29;20464;-73
2022/08/30 02:12:08;;;;;;;1.70;1.50;;;16.20;99.90;;;;;;4931018;29;20468;-73
2022/08/30 02:15:29;;;;;;;1.80;1.70;;;16.20;99.90;;;;;;4927869;29;20475;-73
2022/08/30 02:18:29;;;;;;;1.70;1.60;;;16.20;99.90;;;;;;4930750;29;20456;-73
2022/08/30 02:24:47;;;;;;;1.87;1.30;;;16.20;99.90;;;;;;4929462;29;20471;-73
2022/08/30 02:27:52;;;;;;;2.70;1.33;;;16.20;99.90;;;;;;4928491;29;20533;-73
2022/08/30 02:31:10;;;;;;;1.47;1.30;;;16.20;99.90;;;;;;4929247;29;20451;-73
2022/08/30 02:34:39;;;;;;;1.60;1.33;;;16.20;99.90;;;;;;4930089;29;20460;-73
2022/08/30 02:37:55;;;;;;;1.53;1.43;;;16.20;99.90;;;;;;4924994;29;20480;-73
2022/08/30 02:40:48;;;;;;;1.80;1.70;;;16.20;99.90;;;;;;4928857;29;21039;-73
2022/08/30 02:44:10;;;;;;;1.50;1.40;;;16.20;99.90;;;;;;4929958;29;20456;-73
2022/08/30 02:47:23;;;;;;;2.30;1.53;;;16.20;99.90;;;;;;4929707;29;20468;-73
2022/08/30 02:50:34;;;;;;;1.77;1.33;;;16.20;99.90;;;;;;4928867;29;21487;-73
2022/08/30 02:53:34;;;;;;;1.73;1.63;;;16.20;99.90;;;;;;4931816;29;20531;-73
2022/08/30 02:56:38;;;;;;;1.80;1.57;;;16.20;99.90;;;;;;4930196;29;20549;-73
2022/08/30 02:59:47;;;;;;;1.60;1.43;;;16.20;99.90;;;;;;4929475;29;20460;-73
2022/08/30 03:03:02;;;;;;;2.00;1.73;;;16.10;99.90;;;;;;4930711;28;20479;-73
2022/08/30 03:06:09;;;;;;;1.83;1.23;;;16.10;99.90;;;;;;4930809;29;20476;-73
2022/08/30 03:09:08;;;;;;;1.63;1.37;;;16.10;99.90;;;;;;4927886;29;20588;-73
2022/08/30 03:11:58;;;;;;;1.80;1.70;;;16.10;99.90;;;;;;4929689;29;20456;-73
2022/08/30 03:14:55;;;;;;;1.77;1.60;;;16.10;99.90;;;;;;4930745;29;20479;-73
2022/08/30 03:18:22;;;;;;;1.60;1.50;;;16.10;99.90;;;;;;4930548;29;20502;-73
2022/08/30 03:21:28;;;;;;;1.90;1.57;;;16.10;99.90;;;;;;4928103;29;20984;-73
2022/08/30 03:24:37;;;;;;;3.67;1.60;;;16.10;99.90;;;;;;4932797;29;20463;-75
2022/08/30 03:27:44;;;;;;;2.60;1.63;;;16.10;99.90;;;;;;4930968;28;20456;-73
2022/08/30 03:31:11;;;;;;;2.13;1.83;;;16.10;99.90;;;;;;4928830;29;20475;-73
2022/08/30 03:34:24;;;;;;;2.27;2.03;;;16.10;99.90;;;;;;4927085;29;20456;-73
2022/08/30 03:37:37;;;;;;;1.97;1.63;;;16.10;99.90;;;;;;4927378;29;20487;-73
2022/08/30 03:41:11;;;;;;;1.80;1.70;;;16.10;99.90;;;;;;4929746;29;20475;-73
2022/08/30 03:44:05;;;;;;;2.00;1.37;;;16.10;99.90;;;;;;4925396;28;20455;-73
2022/08/30 03:47:16;;;;;;;2.70;1.77;;;16.10;99.90;;;;;;4926180;29;20467;-73
2022/08/30 03:50:43;;;;;;;1.80;1.70;;;16.10;99.90;;;;;;4925667;29;20455;-73
2022/08/30 03:53:54;;;;;;;1.90;1.40;;;16.10;99.90;;;;;;4928161;29;20472;-73
2022/08/30 03:57:02;;;;;;;;;;;;;;;;;;;;;
2022/08/30 04:00:14;;;;;;;2.53;1.93;;;16.00;99.90;;;;;;4923923;29;20911;-73
2022/08/30 04:06:37;;;;;;;2.50;2.13;;;16.00;99.90;;;;;;4925307;29;20910;-73
2022/08/30 04:09:50;;;;;;;2.63;1.80;;;16.00;99.90;;;;;;4923847;29;23921;-73
2022/08/30 04:12:42;;;;;;;2.30;1.50;;;15.90;99.90;;;;;;4924728;29;20455;-73
2022/08/30 04:15:45;;;;;;;1.80;1.70;;;16.00;99.90;;;;;;4928533;29;20471;-73
2022/08/30 04:18:51;;;;;;;2.00;1.70;;;15.90;99.90;;;;;;4929779;29;20511;-73
2022/08/30 04:21:46;;;;;;;1.97;1.87;;;16.00;99.90;;;;;;4926892;29;20448;-73
2022/08/30 04:24:47;;;;;;;3.57;1.73;;;16.00;99.90;;;;;;4928798;28;20469;-73
2022/08/30 04:31:01;;;;;;;1.80;1.70;;;16.00;99.90;;;;;;4927750;29;20593;-73
2022/08/30 04:33:58;;;;;;;4.10;2.07;;;16.00;99.90;;;;;;4921639;29;20513;-73
2022/08/30 04:37:01;;;;;;;1.90;1.70;;;16.00;99.90;;;;;;4926601;29;20483;-73
2022/08/30 04:40:22;;;;;;;2.23;2.07;;;16.00;99.90;;;;;;4926739;29;20459;-73
2022/08/30 04:46:43;;;;;;;1.63;1.53;;;15.90;99.90;;;;;;4925396;29;20532;-74
2022/08/30 04:50:08;;;;;;;2.07;1.87;;;15.90;99.90;;;;;;4925908;29;20518;-74
2022/08/30 04:53:13;;;;;;;2.03;1.83;;;15.90;99.90;;;;;;4925413;29;20595;-74
2022/08/30 04:56:22;;;;;;;2.20;1.97;;;15.90;99.90;;;;;;4925060;29;20475;-73
2022/08/30 04:59:18;;;;;;;2.10;2.00;;;15.90;99.90;;;;;;4922555;29;21068;-72
2022/08/30 05:02:17;;;;;;;2.27;2.10;;;15.90;99.90;;;;;;4925042;29;20868;-72
2022/08/30 05:08:43;;;;;;;1.80;1.70;;;16.00;99.90;;;;;;4927755;29;21347;-76
2022/08/30 05:11:48;;;;;;;2.10;1.80;;;16.00;99.90;;;;;;4927717;29;20498;-76
2022/08/30 05:15:06;;;;;;;2.23;2.00;;;16.00;99.90;;;;;;4924582;29;20472;-77
2022/08/30 05:21:40;;;;;;;2.70;2.10;;;16.00;99.90;;;;;;4918027;28;21002;-75
2022/08/30 05:24:37;;;;;;;2.77;2.53;;;16.00;99.90;;;;;;4921763;29;20995;-75
2022/08/30 05:27:41;;;;;;;2.97;2.03;;;16.10;99.90;;;;;;4928178;29;21031;-75
2022/08/30 05:30:53;;;;;;;3.10;2.00;;;16.10;99.90;;;;;;4931456;29;20896;-75
2022/08/30 05:34:05;;;;;;;3.37;1.87;;;16.10;99.90;;;;;;4929348;29;20996;-75
2022/08/30 05:37:34;;;;;;;1.97;1.87;;;16.10;99.90;;;;;;4929275;28;20472;-75
2022/08/30 05:40:53;;;;;;;2.33;2.20;;;16.10;99.90;;;;;;4933460;28;20460;-75
2022/08/30 05:44:04;;;;;;;2.90;2.40;;;16.10;99.90;;;;;;4932952;29;20479;-75
2022/08/30 05:47:12;;;;;;;4.33;1.83;;;16.10;99.90;;;;;;4933002;29;20492;-75
2022/08/30 05:50:17;;;;;;;2.10;1.90;;;16.10;99.90;;;;;;4932204;28;20881;-75
2022/08/30 05:53:31;;;;;;;2.13;1.93;;;16.10;99.90;;;;;;4928119;29;20499;-75
2022/08/30 05:56:43;;;;;;;2.30;2.10;;;16.20;99.90;;;;;;4933205;28;20480;-74
2022/08/30 06:00:05;;;;;;;1.87;1.77;;;16.20;99.90;;;;;;4930584;29;20463;-75
2022/08/30 06:02:54;;;;;;;2.30;1.90;;;16.20;99.90;;;;;;4924490;29;20455;-75
2022/08/30 06:05:45;;;;;;;3.60;2.40;;;16.30;99.90;;;;;;4915805;28;20514;-75
2022/08/30 06:08:44;;;;;;;3.87;2.00;;;16.30;99.90;;;;;;4930289;29;20444;-75
2022/08/30 06:11:43;;;;;;;4.10;2.07;;;16.30;99.90;;;;;;4929229;29;20499;-75
2022/08/30 06:14:38;;;;;;;2.63;2.10;;;16.40;99.90;;;;;;4926376;29;20470;-75
2022/08/30 06:17:31;;;;;;;2.60;2.37;;;16.40;99.90;;;;;;4928568;29;20471;-75
2022/08/30 06:20:24;;;;;;;3.70;2.20;;;16.40;99.90;;;;;;4927658;29;21224;-75
2022/08/30 06:23:16;;;;;;;2.73;2.17;;;16.50;99.90;;;;;;4931857;29;20577;-74
2022/08/30 06:26:09;;;;;;;5.43;2.03;;;16.50;99.90;;;;;;4931924;29;20472;-75
2022/08/30 06:29:02;;;;;;;2.90;1.93;;;16.60;99.90;;;;;;4931676;28;20963;-75
2022/08/30 06:31:53;;;;;;;1.60;1.50;;;16.60;99.90;;;;;;4926502;29;20475;-75
2022/08/30 06:34:47;;;;;;;3.37;2.10;;;16.70;99.90;;;;;;4928623;29;20539;-75
2022/08/30 06:37:37;;;;;;;1.77;1.67;;;16.70;99.90;;;;;;4927694;29;20503;-74
2022/08/30 06:40:26;;;;;;;3.70;2.20;;;16.80;99.90;;;;;;4931727;29;20456;-75
2022/08/30 06:43:17;;;;;;;2.60;1.70;;;16.80;99.90;;;;;;4932279;28;20973;-75
2022/08/30 06:46:10;;;;;;;1.77;1.67;;;16.90;99.90;;;;;;4932870;28;20538;-75
2022/08/30 06:49:00;;;;;;;1.80;1.70;;;16.90;99.90;;;;;;4929578;29;20524;-75
2022/08/30 06:51:48;;;;;;;3.10;1.80;;;16.90;99.90;;;;;;4932980;29;20491;-75
2022/08/30 06:54:38;;;;;;;1.67;1.50;;;17.00;99.90;;;;;;4929381;29;20823;-75
2022/08/30 06:57:30;;;;;;;1.43;1.33;;;17.00;99.90;;;;;;4925836;29;20449;-75
2022/08/30 07:00:18;;;;;;;1.50;1.40;;;17.10;99.90;;;;;;4927709;29;21017;-75
2022/08/30 07:03:08;;;;;;;2.57;1.77;;;17.10;99.90;;;;;;4929668;28;20474;-74
2022/08/30 07:06:00;;;;;;;4.10;2.13;;;17.10;99.90;;;;;;4928410;29;20472;-75
2022/08/30 07:08:51;;;;;;;3.23;1.90;;;17.20;99.90;;;;;;4926652;29;20591;-75
2022/08/30 07:11:45;;;;;;;1.80;1.70;;;17.20;99.90;;;;;;4922821;29;20459;-75
2022/08/30 07:14:36;;;;;;;2.90;2.10;;;17.30;99.90;;;;;;4928954;29;20455;-75
2022/08/30 07:20:31;;;;;;;1.70;1.60;;;17.30;99.90;;;;;;4932949;29;21102;-75
2022/08/30 07:23:27;;;;;;;2.20;1.80;;;17.40;99.90;;;;;;4923715;29;20455;-75
2022/08/30 07:26:18;;;;;;;3.20;2.10;;;17.40;99.90;;;;;;4929057;29;20476;-75
2022/08/30 07:29:07;;;;;;;1.87;1.60;;;17.50;99.90;;;;;;4928542;29;20520;-75
2022/08/30 07:31:55;;;;;;;4.10;1.97;;;17.50;99.90;;;;;;4927094;29;20514;-75
2022/08/30 07:34:43;;;;;;;2.50;1.80;;;17.50;99.90;;;;;;4929130;29;20607;-75
2022/08/30 07:37:35;;;;;;;2.47;2.07;;;17.60;99.90;;;;;;4927348;29;20554;-75
2022/08/30 07:40:26;;;;;;;1.70;1.60;;;17.60;99.90;;;;;;4927651;29;20660;-75
2022/08/30 07:43:21;;;;;;;3.23;1.73;;;17.70;99.90;;;;;;4932200;29;20472;-75
2022/08/30 07:46:12;;;;;;;1.80;1.57;;;17.70;99.90;;;;;;4930801;29;21103;-75
2022/08/30 07:49:01;;;;;;;2.30;2.07;;;17.70;99.90;;;;;;4927223;29;20467;-75
2022/08/30 07:51:51;;;;;;;5.00;2.23;;;17.80;99.90;;;;;;4929966;29;22290;-74
2022/08/30 07:54:41;;;;;;;3.40;2.17;;;17.80;99.90;;;;;;4926532;29;20463;-74
2022/08/30 07:57:33;;;;;;;2.13;1.93;;;17.90;99.90;;;;;;4925768;29;20479;-75
2022/08/30 08:00:27;;;;;;;2.17;1.83;;;17.90;99.90;;;;;;4931670;29;20484;-74
2022/08/30 08:03:15;;;;;;;2.40;2.20;;;18.00;99.90;;;;;;4929003;29;20464;-75
2022/08/30 08:06:05;;;;;;;2.43;2.23;;;18.00;99.90;;;;;;4932594;28;20603;-74
2022/08/30 08:08:55;;;;;;;2.13;1.80;;;18.00;99.90;;;;;;4931333;29;20440;-74
2022/08/30 08:11:49;;;;;;;2.00;1.83;;;18.10;99.90;;;;;;4928161;29;20492;-74
2022/08/30 08:14:40;;;;;;;2.37;1.90;;;18.10;99.90;;;;;;4926402;29;20527;-74
2022/08/30 08:17:30;;;;;;;2.00;1.80;;;18.20;99.90;;;;;;4924579;29;20478;-74
2022/08/30 08:20:23;;;;;;;2.30;1.70;;;18.20;99.90;;;;;;4927368;29;20495;-74
2022/08/30 08:23:11;;;;;;;1.83;1.57;;;18.20;99.90;;;;;;4928693;29;20980;-74
2022/08/30 08:26:00;;;;;;;3.10;1.50;;;18.30;99.90;;;;;;4926554;29;21019;-74
2022/08/30 08:28:52;;;;;;;2.13;1.93;;;18.40;99.90;;;;;;4929454;29;20492;-74
2022/08/30 08:31:41;;;;;;;1.60;1.50;;;18.40;99.90;;;;;;4931697;28;20555;-74
2022/08/30 08:34:32;;;;;;;1.83;1.57;;;18.50;99.90;;;;;;4929618;29;20647;-74
2022/08/30 08:37:22;;;;;;;1.60;1.50;;;18.50;99.90;;;;;;4927781;29;20498;-74
2022/08/30 08:40:19;;;;;;;1.57;1.47;;;18.60;99.90;;;;;;4928582;29;20483;-74
2022/08/30 08:43:13;;;;;;;1.40;1.30;;;18.70;99.90;;;;;;4929990;29;20498;-74
2022/08/30 08:46:10;;;;;;;2.30;1.60;;;18.70;99.90;;;;;;4926103;29;20905;-74
2022/08/30 08:49:06;;;;;;;1.67;1.50;;;18.80;99.90;;;;;;4927960;28;20453;-74
2022/08/30 08:55:09;;;;;;;1.50;1.40;;;18.90;99.90;;;;;;4913796;29;20464;-74
2022/08/30 08:58:03;;;;;;;1.50;1.40;;;19.00;99.90;;;;;;4924764;29;22010;-74
2022/08/30 09:00:56;;;;;;;1.40;1.30;;;19.00;99.90;;;;;;4929488;29;20980;-74
2022/08/30 09:03:56;;;;;;;1.67;1.57;;;19.10;99.90;;;;;;4926503;29;21003;-74
2022/08/30 09:06:53;;;;;;;1.67;1.57;;;19.10;99.90;;;;;;4924976;29;20468;-74
2022/08/30 09:09:43;;;;;;;1.93;1.50;;;19.10;99.90;;;;;;4925850;29;20503;-74
2022/08/30 09:12:31;;;;;;;1.33;1.20;;;19.10;99.90;;;;;;4927414;29;20552;-74
2022/08/30 09:15:28;;;;;;;1.50;1.40;;;19.10;99.90;;;;;;4929561;28;20472;-74
2022/08/30 09:18:27;;;;;;;1.80;1.53;;;19.20;99.90;;;;;;4928508;29;20452;-74
2022/08/30 09:21:23;;;;;;;1.43;1.33;;;19.30;99.90;;;;;;4930756;28;20475;-74
2022/08/30 09:24:15;;;;;;;2.20;1.53;;;19.30;99.90;;;;;;4926568;29;20584;-74
2022/08/30 09:27:21;;;;;;;1.60;1.50;;;19.40;99.90;;;;;;4927670;29;20479;-74
2022/08/30 09:30:16;;;;;;;2.20;1.50;;;19.40;99.90;;;;;;4928201;29;20463;-74
2022/08/30 09:33:06;;;;;;;2.20;2.00;;;19.50;99.90;;;;;;4926958;28;20551;-74
2022/08/30 09:35:59;;;;;;;1.77;1.67;;;19.50;99.90;;;;;;4926840;29;20480;-74
2022/08/30 09:38:58;;;;;;;1.30;1.30;;;19.60;99.90;;;;;;4926869;28;20479;-74
2022/08/30 09:41:50;;;;;;;1.40;1.30;;;19.70;99.90;;;;;;4925959;29;20448;-74
2022/08/30 09:44:39;;;;;;;1.40;1.30;;;19.80;99.90;;;;;;4929441;29;20596;-74
2022/08/30 09:47:30;;;;;;;1.57;1.47;;;19.80;99.90;;;;;;4924002;29;20516;-74
2022/08/30 09:50:21;;;;;;;1.50;1.40;;;19.80;99.90;;;;;;4930422;29;20487;-74
2022/08/30 09:53:17;;;;;;;1.90;1.50;;;19.90;99.90;;;;;;4929441;29;20968;-74
2022/08/30 09:56:22;;;;;;;2.20;1.30;;;19.90;99.90;;;;;;4929358;29;20499;-74
2022/08/30 09:59:33;;;;;;;3.00;1.70;;;19.90;99.90;;;;;;4935698;29;20458;-74
2022/08/30 10:02:45;;;;;;;2.00;1.80;;;20.00;99.90;;;;;;4933940;29;20485;-74
2022/08/30 10:05:40;;;;;;;1.83;1.73;;;20.00;99.90;;;;;;4934281;29;20562;-74
2022/08/30 10:08:50;;;;;;;2.83;1.70;;;20.10;99.90;;;;;;4934512;29;20512;-74
2022/08/30 10:11:47;;;;;;;1.67;1.47;;;20.10;99.90;;;;;;4935888;28;20538;-74
2022/08/30 10:14:53;;;;;;;2.20;2.10;;;20.10;99.90;;;;;;4934331;28;20985;-74
2022/08/30 10:17:52;;;;;;;2.77;2.20;;;20.20;99.90;;;;;;4927749;29;20527;-74
2022/08/30 10:20:51;;;;;;;2.70;1.50;;;20.20;99.90;;;;;;4929407;29;20628;-74
2022/08/30 10:23:44;;;;;;;1.83;1.73;;;20.20;99.90;;;;;;4928393;29;20558;-74
2022/08/30 10:26:38;;;;;;;2.33;1.90;;;20.30;99.90;;;;;;4932672;29;20967;-74
2022/08/30 10:29:44;;;;;;;1.80;1.70;;;20.40;99.90;;;;;;4930137;29;20460;-74
2022/08/30 10:32:45;;;;;;;1.70;1.60;;;20.50;99.90;;;;;;4927378;29;20969;-74
2022/08/30 10:35:39;;;;;;;1.73;1.50;;;20.60;99.90;;;;;;4931273;29;20562;-74
2022/08/30 10:38:32;;;;;;;1.60;1.50;;;20.70;99.90;;;;;;4931572;29;20603;-74
2022/08/30 10:41:32;;;;;;;1.50;1.40;;;20.80;99.90;;;;;;4930807;29;20523;-74
2022/08/30 10:44:30;;;;;;;1.60;1.50;;;21.00;99.90;;;;;;4932002;29;20472;-74
2022/08/30 10:47:33;;;;;;;2.87;1.30;;;21.10;99.90;;;;;;4931900;29;20566;-74
2022/08/30 10:50:32;;;;;;;1.60;1.50;;;21.30;99.90;;;;;;4931265;29;20456;-74
2022/08/30 10:53:32;;;;;;;1.83;1.50;;;21.30;99.90;;;;;;4933530;29;20819;-74
2022/08/30 10:56:25;;;;;;;1.60;1.50;;;21.50;99.90;;;;;;4931093;29;20570;-74
2022/08/30 10:59:16;;;;;;;1.70;1.60;;;21.50;99.90;;;;;;4931257;29;20452;-74
2022/08/30 11:02:28;;;;;;;1.50;1.40;;;21.50;99.90;;;;;;4931481;29;20467;-74
2022/08/30 11:05:43;;;;;;;1.60;1.40;;;21.40;99.90;;;;;;4926436;29;20563;-74
2022/08/30 11:08:52;;;;;;;2.50;1.50;;;21.40;99.90;;;;;;4929142;29;20468;-74
2022/08/30 11:11:58;;;;;;;2.77;1.70;;;21.40;99.90;;;;;;4935577;28;20554;-74
2022/08/30 11:14:47;;;;;;;1.63;1.53;;;21.30;99.90;;;;;;4939143;29;20511;-74
2022/08/30 11:17:44;;;;;;;1.60;1.50;;;21.30;99.90;;;;;;4938809;28;21008;-74
2022/08/30 11:20:46;;;;;;;1.63;1.53;;;21.30;99.90;;;;;;4941783;29;20487;-74
2022/08/30 11:23:37;;;;;;;1.70;1.60;;;21.20;99.90;;;;;;4937966;29;20483;-74
2022/08/30 11:27:06;;;;;;;1.57;1.47;;;21.20;99.90;;;;;;4937552;29;20484;-74
2022/08/30 11:30:00;;;;;;;2.23;1.60;;;21.30;99.90;;;;;;4929954;28;20470;-74
2022/08/30 11:33:00;;;;;;;3.23;1.70;;;21.20;99.90;;;;;;4927493;29;20460;-74
2022/08/30 11:35:53;;;;;;;1.60;1.50;;;21.20;99.90;;;;;;4930729;28;20481;-74
2022/08/30 11:39:01;;;;;;;1.50;1.40;;;21.20;99.90;;;;;;4927362;29;20495;-74
2022/08/30 11:42:11;;;;;;;3.87;1.50;;;21.20;99.90;;;;;;4927094;29;20511;-74
2022/08/30 11:45:38;;;;;;;1.53;1.43;;;21.20;99.90;;;;;;4931053;29;20471;-74
2022/08/30 11:48:51;;;;;;;1.47;1.37;;;21.20;99.90;;;;;;4929895;28;20959;-77
2022/08/30 11:52:00;;;;;;;3.73;1.87;;;21.30;99.90;;;;;;4929208;29;20515;-74
2022/08/30 11:55:25;;;;;;;1.60;1.50;;;21.30;99.90;;;;;;4929334;28;20466;-74
2022/08/30 11:58:46;;;;;;;1.70;1.60;;;21.30;99.90;;;;;;4927263;29;20459;-74
2022/08/30 12:01:41;;;;;;;1.37;1.27;;;21.40;99.90;;;;;;4929457;29;20575;-74
2022/08/30 12:04:46;;;;;;;1.40;1.30;;;21.40;99.90;;;;;;4928610;29;20471;-74
2022/08/30 12:08:07;;;;;;;2.23;1.60;;;21.50;99.90;;;;;;4923506;29;20505;-74
2022/08/30 12:11:01;;;;;;;1.73;1.40;;;21.60;99.90;;;;;;4929110;29;20500;-74
2022/08/30 12:13:54;;;;;;;2.60;1.50;;;21.80;99.90;;;;;;4922829;29;21036;-74
2022/08/30 12:20:04;;;;;;;1.33;1.23;;;21.90;99.90;;;;;;4927298;29;20499;-74
2022/08/30 12:22:54;;;;;;;2.10;1.43;;;22.10;99.90;;;;;;4925803;29;21067;-74
2022/08/30 12:25:47;;;;;;;0.90;0.90;;;22.30;99.90;;;;;;4928898;29;20465;-74
2022/08/30 12:28:35;;;;;;;1.47;1.27;;;22.50;99.90;;;;;;4929132;28;20554;-74
2022/08/30 12:31:26;;;;;;;1.00;1.00;;;22.60;99.90;;;;;;4921777;28;21244;-74
2022/08/30 12:34:34;;;;;;;1.57;1.47;;;22.80;99.90;;;;;;4923993;29;20488;-74
2022/08/30 12:37:28;;;;;;;1.37;1.27;;;23.00;99.90;;;;;;4921697;29;20475;-74
2022/08/30 12:40:20;;;;;;;1.50;1.40;;;23.20;99.90;;;;;;4922410;29;20940;-74
2022/08/30 12:43:26;;;;;;;1.40;1.30;;;23.40;99.90;;;;;;4924711;29;20468;-74
2022/08/30 12:46:28;;;;;;;1.17;1.00;;;23.50;99.90;;;;;;4928886;29;20579;-74
2022/08/30 12:49:20;;;;;;;1.33;1.23;;;23.60;99.90;;;;;;4925827;29;20456;-74
2022/08/30 12:52:23;;;;;;;2.17;1.30;;;23.70;99.90;;;;;;4927052;29;20935;-75
2022/08/30 12:55:17;;;;;;;2.90;1.30;;;23.80;99.90;;;;;;4926323;29;20487;-75
2022/08/30 12:58:10;;;;;;;3.23;1.63;;;23.90;99.90;;;;;;4926592;29;20499;-77
2022/08/30 13:01:18;;;;;;;1.93;1.20;;;23.80;99.90;;;;;;4921737;28;20484;-77
2022/08/30 13:04:13;;;;;;;1.50;1.40;;;23.90;99.90;;;;;;4926738;29;20479;-77
2022/08/30 13:07:02;;;;;;;1.40;1.30;;;24.00;99.90;;;;;;4923536;29;21455;-74
2022/08/30 13:10:06;;;;;;;2.83;1.20;;;24.20;99.90;;;;;;4924090;28;20551;-75
2022/08/30 13:13:02;;;;;;;1.30;1.20;;;24.30;99.90;;;;;;4930678;28;20474;-77
2022/08/30 13:15:53;;;;;;;1.20;1.10;;;24.60;99.90;;;;;;4925872;28;20623;-76
2022/08/30 13:18:47;;;;;;;1.23;0.97;;;24.90;99.90;;;;;;4924791;29;21174;-75
2022/08/30 13:21:46;;;;;;;1.50;0.90;;;25.10;99.90;;;;;;4928125;28;20527;-75
2022/08/30 13:24:37;;;;;;;1.60;1.10;;;25.10;99.90;;;;;;4928372;29;20462;-75
2022/08/30 13:27:28;;;;;;;1.13;1.10;;;25.10;99.90;;;;;;4927032;29;20890;-78
2022/08/30 13:30:24;;;;;;;1.43;1.33;;;25.00;99.90;;;;;;4928478;29;20987;-78
2022/08/30 13:33:15;;;;;;;1.27;1.20;;;25.00;99.90;;;;;;4931723;29;20451;-77
2022/08/30 13:36:05;;;;;;;1.20;1.10;;;24.90;99.90;;;;;;4931254;29;20503;-79
2022/08/30 13:38:56;;;;;;;2.33;1.10;;;24.80;99.90;;;;;;4918460;29;20471;-73
2022/08/30 13:41:47;;;;;;;1.67;1.20;;;24.80;99.90;;;;;;4926920;28;20975;-74
2022/08/30 13:44:38;;;;;;;1.40;1.30;;;24.70;99.90;;;;;;4925647;29;20512;-73
2022/08/30 13:47:31;;;;;;;1.30;1.20;;;24.90;99.90;;;;;;4928772;28;20488;-73
2022/08/30 13:50:22;;;;;;;1.33;1.10;;;25.10;99.90;;;;;;4928629;29;20456;-74
2022/08/30 13:53:14;;;;;;;1.30;1.20;;;25.50;99.90;;;;;;4932661;29;20460;-74
2022/08/30 13:56:24;;;;;;;1.30;1.20;;;25.90;99.90;;;;;;4929853;29;21066;-74
2022/08/30 13:59:12;;;;;;;1.07;1.07;;;26.40;99.90;;;;;;4929716;29;20492;-74
2022/08/30 14:02:05;;;;;;;1.70;1.07;;;26.80;99.90;;;;;;4923967;29;21018;-74
2022/08/30 14:04:55;;;;;;;3.40;1.10;;;26.90;99.90;;;;;;4928430;29;20463;-74
2022/08/30 14:07:49;;;;;;;1.20;1.10;;;27.20;99.90;;;;;;4932481;29;20464;-74
2022/08/30 14:10:40;;;;;;;1.63;1.00;;;27.20;99.90;;;;;;4930615;29;20610;-74
2022/08/30 14:13:36;;;;;;;2.30;1.13;;;27.00;99.90;;;;;;4925323;29;20459;-74
2022/08/30 14:16:27;;;;;;;1.43;1.23;;;26.70;99.90;;;;;;4928231;29;20585;-74
2022/08/30 14:19:18;;;;;;;1.30;1.20;;;26.40;99.90;;;;;;4927786;29;20503;-74
2022/08/30 14:22:06;;;;;;;2.53;1.13;;;26.10;99.90;;;;;;4923612;29;22377;-74
2022/08/30 14:24:55;;;;;;;1.10;0.90;;;26.00;99.90;;;;;;4927243;28;20475;-74
2022/08/30 14:27:49;;;;;;;1.30;0.93;;;25.90;99.90;;;;;;4922184;29;20460;-74
2022/08/30 14:30:37;;;;;;;3.27;1.10;;;25.90;99.90;;;;;;4930048;29;20970;-74
2022/08/30 14:33:28;;;;;;;1.43;1.20;;;25.80;99.90;;;;;;4927506;29;20619;-74
2022/08/30 14:36:17;;;;;;;2.10;1.20;;;25.70;99.90;;;;;;4923639;29;20619;-74
2022/08/30 14:39:07;;;;;;;1.50;1.10;;;25.60;99.90;;;;;;4931392;29;20452;-74
2022/08/30 14:42:00;;;;;;;1.53;1.40;;;25.40;99.90;;;;;;4930622;29;20583;-74
2022/08/30 14:44:52;;;;;;;2.50;1.37;;;25.20;99.90;;;;;;4928055;29;20851;-74
2022/08/30 14:47:44;;;;;;;1.30;1.20;;;25.10;99.90;;;;;;4929598;29;20466;-74
2022/08/30 14:50:33;;;;;;;2.60;1.10;;;25.10;99.90;;;;;;4929413;29;20571;-73
2022/08/30 14:53:23;;;;;;;1.50;1.33;;;25.00;99.90;;;;;;4927694;29;22654;-73
2022/08/30 14:56:19;;;;;;;4.73;1.10;;;25.00;99.90;;;;;;4928169;29;20484;-73
2022/08/30 14:59:11;;;;;;;2.23;1.27;;;25.00;99.90;;;;;;4928994;29;20471;-73
2022/08/30 15:02:04;;;;;;;2.27;1.20;;;24.90;99.90;;;;;;4926573;29;20495;-74
2022/08/30 15:04:53;;;;;;;1.10;1.00;;;24.60;99.90;;;;;;4929263;29;20453;-74
2022/08/30 15:07:45;;;;;;;1.07;0.97;;;24.50;99.90;;;;;;4926800;29;20460;-74
2022/08/30 15:10:33;;;;;;;1.30;1.20;;;24.50;99.90;;;;;;4929314;29;20460;-74
2022/08/30 15:13:27;;;;;;;1.67;1.13;;;24.40;99.90;;;;;;4932489;29;20535;-74
2022/08/30 15:16:19;;;;;;;0.90;0.90;;;24.40;99.90;;;;;;4923153;29;20496;-73
2022/08/30 15:19:12;;;;;;;1.63;1.00;;;24.40;99.90;;;;;;4930168;29;20463;-73
2022/08/30 15:22:02;;;;;;;1.53;0.93;;;24.40;99.90;;;;;;4932107;29;20468;-74
2022/08/30 15:24:54;;;;;;;1.23;1.00;;;24.30;99.90;;;;;;4932333;29;20488;-74
2022/08/30 15:27:42;;;;;;;1.27;0.90;;;24.10;99.90;;;;;;4925273;29;20515;-74
2022/08/30 15:30:32;;;;;;;1.77;1.20;;;24.00;99.90;;;;;;4928281;29;20460;-73
2022/08/30 15:33:20;;;;;;;0.90;0.90;;;23.90;99.90;;;;;;4931058;28;20546;-74
2022/08/30 15:36:15;;;;;;;1.13;1.03;;;23.70;99.90;;;;;;4925840;29;20575;-73
2022/08/30 15:39:06;;;;;;;1.47;1.07;;;23.60;99.90;;;;;;4930534;28;20543;-74
2022/08/30 15:41:54;;;;;;;2.10;1.20;;;23.50;99.90;;;;;;4927650;29;20460;-73
2022/08/30 15:44:52;;;;;;;1.27;1.00;;;23.40;99.90;;;;;;4930170;29;20456;-74
2022/08/30 15:47:44;;;;;;;1.17;1.07;;;23.30;99.90;;;;;;4927995;29;20459;-74
2022/08/30 15:50:34;;;;;;;1.20;1.10;;;23.20;99.90;;;;;;4932584;29;20460;-74
2022/08/30 15:53:24;;;;;;;3.20;1.17;;;23.10;99.90;;;;;;4927059;29;20495;-74
2022/08/30 15:56:12;;;;;;;1.57;0.90;;;23.00;99.90;;;;;;4926628;29;20520;-74
2022/08/30 15:59:02;;;;;;;1.17;1.07;;;22.80;99.90;;;;;;4926298;29;20496;-74
2022/08/30 16:01:55;;;;;;;1.00;0.80;;;22.80;99.90;;;;;;4928850;29;20499;-74
2022/08/30 16:04:53;;;;;;;1.20;1.00;;;22.70;99.90;;;;;;4928523;29;20833;-74
2022/08/30 16:07:45;;;;;;;1.83;0.90;;;22.60;99.90;;;;;;4923868;28;20455;-73
2022/08/30 16:10:39;;;;;;;1.20;1.10;;;22.50;99.90;;;;;;4924128;29;20554;-73
2022/08/30 16:13:32;;;;;;;0.90;0.90;;;22.40;99.90;;;;;;4928267;29;20456;-73
2022/08/30 16:16:21;;;;;;;0.70;0.67;;;22.40;99.90;;;;;;4926627;29;20471;-72
2022/08/30 16:19:09;;;;;;;1.53;0.83;;;22.40;99.90;;;;;;4924976;29;20566;-73
2022/08/30 16:21:58;;;;;;;1.27;0.73;;;22.30;99.90;;;;;;4931205;29;20451;-74